Time;durP1;ratioP1;P1;durP2;ratioP2;P2;SDS_P1;SDS_P2;PMS_P1;PMS_P2;Temp;Humidity;BMP_temperature;BMP_pressure;BME280_temperature;BME280_humidity;BME280_pressure;Samples;Min_cycle;Max_cycle;Signal;HPM_P1;HPM_P2
2021/05/16 00:00:48;;;;;;;6.40;3.33;;;10.20;99.80;;;;;;6155714;23;20520;-88
2021/05/16 00:03:17;;;;;;;3.43;3.10;;;10.20;99.80;;;;;;6160591;23;20977;-87
2021/05/16 00:05:45;;;;;;;4.13;3.03;;;10.20;99.80;;;;;;6169587;23;20442;-88
2021/05/16 00:08:14;;;;;;;3.50;2.83;;;10.30;99.80;;;;;;6164196;23;20438;-87
2021/05/16 00:10:42;;;;;;;4.00;3.40;;;10.30;99.80;;;;;;6164475;23;20430;-87
2021/05/16 00:13:10;;;;;;;10.37;4.00;;;10.30;99.80;;;;;;6166827;23;20441;-87
2021/05/16 00:15:38;;;;;;;5.50;3.10;;;10.30;99.80;;;;;;6167802;23;21029;-87
2021/05/16 00:18:06;;;;;;;13.37;4.07;;;10.40;99.80;;;;;;6159461;23;20517;-87
2021/05/16 00:20:35;;;;;;;5.87;4.17;;;10.40;99.80;;;;;;6177125;23;21031;-88
2021/05/16 00:23:03;;;;;;;6.10;3.63;;;10.40;99.80;;;;;;6173685;23;20511;-87
2021/05/16 00:25:36;;;;;;;7.13;4.27;;;10.30;99.80;;;;;;6169678;23;20511;-87
2021/05/16 00:28:05;;;;;;;6.90;4.83;;;10.30;99.80;;;;;;6170482;23;20439;-88
2021/05/16 00:30:34;;;;;;;6.90;4.57;;;10.30;99.80;;;;;;6167424;23;20523;-87
2021/05/16 00:33:01;;;;;;;4.30;3.60;;;10.40;99.80;;;;;;6165886;23;20454;-87
2021/05/16 00:35:31;;;;;;;8.60;4.50;;;10.40;99.80;;;;;;6167304;23;20440;-87
2021/05/16 00:38:01;;;;;;;10.77;4.20;;;10.40;99.80;;;;;;6157670;23;20752;-87
2021/05/16 00:40:30;;;;;;;6.80;4.10;;;10.40;99.80;;;;;;6172025;23;20440;-87
2021/05/16 00:42:57;;;;;;;5.70;3.90;;;;;;;;;;6159197;23;20439;-88
2021/05/16 00:45:26;;;;;;;9.93;4.63;;;10.40;99.80;;;;;;6169166;23;20450;-87
2021/05/16 00:47:55;;;;;;;7.40;4.57;;;10.30;99.80;;;;;;6176034;23;21149;-87
2021/05/16 00:50:24;;;;;;;3.83;3.53;;;10.30;99.80;;;;;;6177345;23;20430;-87
2021/05/16 00:52:52;;;;;;;6.23;4.20;;;10.20;99.80;;;;;;6175593;23;20497;-88
2021/05/16 00:55:21;;;;;;;6.33;4.63;;;10.30;99.80;;;;;;6171373;23;20495;-87
2021/05/16 00:57:50;;;;;;;5.60;4.53;;;10.20;99.80;;;;;;6167092;23;20474;-88
2021/05/16 01:00:23;;;;;;;8.90;5.03;;;10.20;99.80;;;;;;6141845;23;20520;-87
2021/05/16 01:02:51;;;;;;;7.20;4.67;;;10.10;99.80;;;;;;6165992;23;20528;-88
2021/05/16 01:05:22;;;;;;;12.83;4.87;;;10.00;99.80;;;;;;6168965;23;20487;-87
2021/05/16 01:07:50;;;;;;;7.47;4.50;;;9.90;99.80;;;;;;6164725;23;20436;-87
2021/05/16 01:10:20;;;;;;;5.63;4.70;;;9.90;99.80;;;;;;6167018;23;20776;-83
2021/05/16 01:12:50;;;;;;;9.77;5.03;;;9.90;99.80;;;;;;6154321;23;20436;-86
2021/05/16 01:15:19;;;;;;;9.73;4.40;;;9.80;99.80;;;;;;6156261;23;20441;-86
2021/05/16 01:17:48;;;;;;;8.20;5.50;;;9.80;99.80;;;;;;6169660;23;20469;-86
2021/05/16 01:20:19;;;;;;;10.73;4.63;;;9.80;99.80;;;;;;6173907;23;20463;-86
2021/05/16 01:22:53;;;;;;;9.13;4.70;;;9.80;99.80;;;;;;6172534;23;20439;-86
2021/05/16 01:25:20;;;;;;;7.00;4.43;;;9.80;99.80;;;;;;6173537;23;20444;-84
2021/05/16 01:27:48;;;;;;;6.40;4.43;;;9.80;99.80;;;;;;6164863;23;20511;-86
2021/05/16 01:30:17;;;;;;;4.93;3.87;;;9.80;99.80;;;;;;6168827;23;20433;-86
2021/05/16 01:32:45;;;;;;;7.13;5.10;;;9.80;99.80;;;;;;6150194;23;20444;-86
2021/05/16 01:35:12;;;;;;;4.83;4.27;;;9.80;99.80;;;;;;6174839;23;20447;-86
2021/05/16 01:37:40;;;;;;;14.37;6.50;;;9.80;99.80;;;;;;6171232;23;20520;-87
2021/05/16 01:40:10;;;;;;;7.17;4.60;;;9.80;99.80;;;;;;6154221;23;20445;-85
2021/05/16 01:42:43;;;;;;;6.30;4.90;;;9.80;99.80;;;;;;6158335;23;20440;-87
2021/05/16 01:45:14;;;;;;;7.30;4.30;;;9.90;99.80;;;;;;6162695;23;20444;-86
2021/05/16 01:47:41;;;;;;;6.67;4.20;;;10.00;99.80;;;;;;6165162;23;20514;-87
2021/05/16 01:50:12;;;;;;;6.40;4.70;;;10.00;99.80;;;;;;6168661;23;20453;-88
2021/05/16 01:52:42;;;;;;;6.87;4.83;;;10.00;99.80;;;;;;6140196;23;20436;-87
2021/05/16 01:55:13;;;;;;;13.50;4.70;;;10.10;99.80;;;;;;6153134;23;21273;-85
2021/05/16 01:57:41;;;;;;;9.50;4.17;;;10.10;99.80;;;;;;6149818;23;20932;-87
2021/05/16 02:00:11;;;;;;;9.37;4.97;;;10.10;99.80;;;;;;6136101;23;20439;-86
2021/05/16 02:02:39;;;;;;;4.63;4.00;;;10.10;99.80;;;;;;6180049;23;20468;-86
2021/05/16 02:05:10;;;;;;;5.70;4.47;;;10.10;99.80;;;;;;6180626;23;20440;-85
2021/05/16 02:07:39;;;;;;;7.63;4.57;;;10.10;99.80;;;;;;6181429;23;20376;-85
2021/05/16 02:10:07;;;;;;;6.37;5.13;;;10.10;99.80;;;;;;6180966;23;20740;-86
2021/05/16 02:12:36;;;;;;;6.00;4.37;;;10.10;99.80;;;;;;6181261;23;20416;-87
2021/05/16 02:15:04;;;;;;;7.40;5.40;;;10.10;99.80;;;;;;6181000;23;20459;-85
2021/05/16 02:17:33;;;;;;;7.73;4.97;;;10.20;99.80;;;;;;6180859;23;20536;-86
2021/05/16 02:20:00;;;;;;;6.00;4.87;;;10.10;99.80;;;;;;6133810;23;20440;-86
2021/05/16 02:22:28;;;;;;;7.47;4.83;;;10.20;99.80;;;;;;6140336;23;20445;-87
2021/05/16 02:24:55;;;;;;;7.77;4.80;;;10.20;99.80;;;;;;6159463;23;20445;-86
2021/05/16 02:27:23;;;;;;;5.70;4.37;;;10.20;99.80;;;;;;6158660;23;20447;-86
2021/05/16 02:29:51;;;;;;;7.70;5.67;;;10.20;99.80;;;;;;6161672;23;20766;-86
2021/05/16 02:32:19;;;;;;;4.93;4.00;;;10.10;99.80;;;;;;6169729;23;20451;-86
2021/05/16 02:34:46;;;;;;;5.07;4.10;;;10.10;99.80;;;;;;6164932;23;20443;-86
2021/05/16 02:37:14;;;;;;;4.83;4.20;;;10.10;99.80;;;;;;6162590;23;20436;-85
2021/05/16 02:39:42;;;;;;;6.43;4.27;;;10.00;99.80;;;;;;6164120;23;21190;-86
2021/05/16 02:42:09;;;;;;;4.83;4.03;;;10.00;99.80;;;;;;6159522;23;20523;-86
2021/05/16 02:44:38;;;;;;;4.60;4.20;;;10.10;99.80;;;;;;6166845;23;20486;-88
2021/05/16 02:47:06;;;;;;;3.50;3.20;;;10.10;99.80;;;;;;6170814;23;20440;-86
2021/05/16 02:49:34;;;;;;;4.43;3.47;;;10.00;99.80;;;;;;6172769;23;20462;-86
2021/05/16 02:52:01;;;;;;;11.63;4.57;;;10.00;99.80;;;;;;6175136;23;20524;-88
2021/05/16 02:54:33;;;;;;;6.90;3.17;;;9.90;99.80;;;;;;6172173;23;20436;-87
2021/05/16 02:57:01;;;;;;;7.43;3.70;;;9.90;99.80;;;;;;6150482;23;20782;-86
2021/05/16 02:59:29;;;;;;;5.73;3.57;;;9.90;99.80;;;;;;6154238;23;20445;-85
2021/05/16 03:01:56;;;;;;;8.60;4.00;;;9.90;99.80;;;;;;6151130;23;20566;-88
2021/05/16 03:04:25;;;;;;;5.90;3.50;;;9.90;99.80;;;;;;6170694;23;20444;-85
2021/05/16 03:06:53;;;;;;;7.73;4.13;;;10.00;99.80;;;;;;6169681;23;21005;-84
2021/05/16 03:09:20;;;;;;;8.17;3.80;;;10.00;99.80;;;;;;6156861;23;20439;-85
2021/05/16 03:11:48;;;;;;;6.63;3.67;;;10.00;99.80;;;;;;6140945;23;20444;-86
2021/05/16 03:14:16;;;;;;;5.77;3.30;;;10.10;99.80;;;;;;6166287;23;20964;-88
2021/05/16 03:16:44;;;;;;;7.07;3.67;;;10.10;99.80;;;;;;6167435;23;20445;-86
2021/05/16 03:19:12;;;;;;;5.30;3.50;;;10.10;99.80;;;;;;6170378;23;20499;-85
2021/05/16 03:21:42;;;;;;;5.67;3.43;;;10.10;99.80;;;;;;6174876;23;20440;-86
2021/05/16 03:24:10;;;;;;;16.00;3.70;;;10.10;99.80;;;;;;6167207;23;20467;-86
2021/05/16 03:26:37;;;;;;;6.77;3.97;;;10.10;99.80;;;;;;6169842;23;20440;-86
2021/05/16 03:29:06;;;;;;;4.83;3.57;;;10.10;99.80;;;;;;6172767;23;20517;-86
2021/05/16 03:31:34;;;;;;;5.93;3.57;;;10.10;99.80;;;;;;6170300;23;20492;-86
2021/05/16 03:34:01;;;;;;;5.90;2.67;;;10.10;99.80;;;;;;6176873;23;20449;-86
2021/05/16 03:36:29;;;;;;;5.20;3.47;;;10.10;99.80;;;;;;6177891;23;20444;-87
2021/05/16 03:38:57;;;;;;;5.53;3.90;;;10.20;99.80;;;;;;6165075;23;20545;-86
2021/05/16 03:41:25;;;;;;;7.37;3.30;;;10.10;99.80;;;;;;6158609;23;20958;-86
2021/05/16 03:43:52;;;;;;;5.73;3.50;;;10.10;99.80;;;;;;6166194;23;20448;-86
2021/05/16 03:46:20;;;;;;;5.03;2.97;;;10.10;99.80;;;;;;6162889;23;20436;-86
2021/05/16 03:48:47;;;;;;;5.83;3.00;;;10.10;99.80;;;;;;6168099;23;20439;-85
2021/05/16 03:51:15;;;;;;;6.40;3.10;;;10.10;99.80;;;;;;6168376;23;21060;-87
2021/05/16 03:53:43;;;;;;;5.90;3.77;;;10.10;99.80;;;;;;6155325;23;20439;-86
2021/05/16 03:56:11;;;;;;;9.10;3.30;;;10.00;99.80;;;;;;6165643;23;20470;-86
2021/05/16 03:58:38;;;;;;;4.80;3.20;;;10.00;99.80;;;;;;6165194;23;20436;-86
2021/05/16 04:01:06;;;;;;;5.53;3.83;;;10.00;99.80;;;;;;6133394;23;20464;-86
2021/05/16 04:03:33;;;;;;;6.80;3.67;;;10.00;99.80;;;;;;6160664;23;20448;-86
2021/05/16 04:06:01;;;;;;;8.20;3.70;;;10.00;99.80;;;;;;6173078;23;20446;-86
2021/05/16 04:08:28;;;;;;;4.53;3.67;;;10.00;99.80;;;;;;6172793;23;20443;-87
2021/05/16 04:10:56;;;;;;;4.33;3.13;;;10.10;99.80;;;;;;6155199;23;20440;-84
2021/05/16 04:13:25;;;;;;;6.10;3.17;;;10.00;99.80;;;;;;6150926;23;20439;-86
2021/05/16 04:15:52;;;;;;;6.27;3.17;;;10.10;99.80;;;;;;6145847;23;20455;-86
2021/05/16 04:18:20;;;;;;;5.53;3.50;;;10.10;99.80;;;;;;6173948;23;20440;-88
2021/05/16 04:20:47;;;;;;;3.80;3.03;;;10.10;99.80;;;;;;6168215;23;20435;-87
2021/05/16 04:23:15;;;;;;;6.83;3.50;;;10.20;99.80;;;;;;6156336;23;20503;-86
2021/05/16 04:25:42;;;;;;;9.43;3.43;;;10.20;99.80;;;;;;6170851;23;20451;-86
2021/05/16 04:28:10;;;;;;;6.50;3.20;;;10.20;99.80;;;;;;6158065;23;20440;-87
2021/05/16 04:30:38;;;;;;;4.30;3.43;;;10.20;99.80;;;;;;6169884;23;20445;-87
2021/05/16 04:33:05;;;;;;;4.27;2.90;;;10.30;99.80;;;;;;6175496;23;20450;-87
2021/05/16 04:35:33;;;;;;;7.10;3.20;;;10.30;99.80;;;;;;6175689;23;20442;-86
2021/05/16 04:38:00;;;;;;;4.37;2.87;;;10.30;99.80;;;;;;6177459;23;20779;-86
2021/05/16 04:40:28;;;;;;;4.53;3.20;;;10.40;99.80;;;;;;6174345;23;20467;-86
2021/05/16 04:42:56;;;;;;;4.77;3.50;;;10.40;99.80;;;;;;6141315;23;20503;-86
2021/05/16 04:45:23;;;;;;;8.03;3.70;;;10.40;99.80;;;;;;6169341;23;20439;-86
2021/05/16 04:47:52;;;;;;;14.20;3.13;;;10.30;99.80;;;;;;6168150;23;20442;-88
2021/05/16 04:50:19;;;;;;;5.43;2.90;;;10.30;99.80;;;;;;6169134;23;20990;-86
2021/05/16 04:52:47;;;;;;;9.33;3.53;;;10.20;99.80;;;;;;6169173;23;20442;-86
2021/05/16 04:55:15;;;;;;;3.23;3.00;;;10.20;99.80;;;;;;6145864;23;20435;-86
2021/05/16 04:57:44;;;;;;;3.90;2.67;;;10.10;99.80;;;;;;6142725;23;20519;-86
2021/05/16 05:00:13;;;;;;;3.40;3.10;;;10.20;99.80;;;;;;6148040;23;20475;-87
2021/05/16 05:02:42;;;;;;;3.40;2.47;;;10.20;99.80;;;;;;6170295;23;20425;-86
2021/05/16 05:05:11;;;;;;;6.83;2.50;;;10.30;99.80;;;;;;6174375;23;20463;-87
2021/05/16 05:07:39;;;;;;;4.13;2.80;;;10.30;99.80;;;;;;6178264;23;20524;-85
2021/05/16 05:10:08;;;;;;;5.30;2.90;;;10.30;99.80;;;;;;6176505;23;21166;-86
2021/05/16 05:12:35;;;;;;;5.80;3.03;;;10.30;99.80;;;;;;6172752;23;20473;-87
2021/05/16 05:15:04;;;;;;;5.43;2.70;;;10.40;99.80;;;;;;6171455;23;20448;-86
2021/05/16 05:17:32;;;;;;;5.43;2.40;;;10.50;99.80;;;;;;6166643;23;20439;-87
2021/05/16 05:19:59;;;;;;;5.70;2.10;;;10.60;99.80;;;;;;6178676;23;20469;-86
2021/05/16 05:22:28;;;;;;;3.90;2.53;;;10.80;99.80;;;;;;6166394;23;20495;-86
2021/05/16 05:24:55;;;;;;;3.97;2.50;;;11.00;99.80;;;;;;6157427;23;20441;-86
2021/05/16 05:27:24;;;;;;;3.63;2.60;;;11.10;99.80;;;;;;6173351;23;20434;-86
2021/05/16 05:29:53;;;;;;;5.13;2.40;;;11.20;99.80;;;;;;6164385;23;20944;-86
2021/05/16 05:32:21;;;;;;;4.40;2.63;;;11.30;99.80;;;;;;6161632;23;20504;-87
2021/05/16 05:34:49;;;;;;;5.63;2.57;;;11.30;99.80;;;;;;6170820;23;20507;-86
2021/05/16 05:37:28;;;;;;;4.10;2.50;;;11.30;99.80;;;;;;6159678;23;20428;-87
2021/05/16 05:39:57;;;;;;;5.63;2.50;;;11.40;99.80;;;;;;6159132;23;20535;-86
2021/05/16 05:42:26;;;;;;;2.37;2.17;;;11.60;99.80;;;;;;6161098;23;20437;-86
2021/05/16 05:44:53;;;;;;;4.37;2.83;;;11.80;99.80;;;;;;6147304;23;20447;-86
2021/05/16 05:47:21;;;;;;;4.87;2.10;;;11.90;99.80;;;;;;6170346;23;20750;-86
2021/05/16 05:49:49;;;;;;;3.03;2.30;;;12.00;99.80;;;;;;6161087;23;20441;-87
2021/05/16 05:52:16;;;;;;;7.33;2.77;;;12.00;99.80;;;;;;6171975;23;20433;-86
2021/05/16 05:54:45;;;;;;;3.60;2.80;;;12.00;99.80;;;;;;6174876;23;20440;-86
2021/05/16 05:57:12;;;;;;;4.33;3.03;;;12.00;99.80;;;;;;6163976;23;20444;-87
2021/05/16 05:59:40;;;;;;;8.60;2.50;;;12.00;99.80;;;;;;6132633;23;20503;-86
2021/05/16 06:02:08;;;;;;;5.43;2.70;;;11.90;99.80;;;;;;6142020;23;20441;-87
2021/05/16 06:04:36;;;;;;;2.90;2.50;;;11.90;99.80;;;;;;6160888;23;20503;-87
2021/05/16 06:07:04;;;;;;;3.20;2.43;;;11.90;99.80;;;;;;6161360;23;20444;-86
2021/05/16 06:09:32;;;;;;;4.70;3.20;;;11.90;99.80;;;;;;6148105;23;20447;-86
2021/05/16 06:12:00;;;;;;;5.30;3.70;;;11.80;99.80;;;;;;6123800;23;20440;-88
2021/05/16 06:14:29;;;;;;;3.53;3.20;;;11.70;99.80;;;;;;6136492;23;20499;-86
2021/05/16 06:16:56;;;;;;;3.67;3.33;;;11.60;99.80;;;;;;6163411;23;20935;-86
2021/05/16 06:19:26;;;;;;;4.90;3.43;;;11.60;99.80;;;;;;6178387;23;21003;-86
2021/05/16 06:21:54;;;;;;;6.40;3.67;;;11.70;99.80;;;;;;6177204;23;21452;-86
2021/05/16 06:24:22;;;;;;;4.70;3.47;;;11.80;99.80;;;;;;6176533;23;20544;-86
2021/05/16 06:26:49;;;;;;;7.73;3.47;;;12.00;99.80;;;;;;6162691;23;20985;-86
2021/05/16 06:29:18;;;;;;;5.47;3.40;;;12.00;99.80;;;;;;6147413;23;20445;-86
2021/05/16 06:31:46;;;;;;;4.60;3.63;;;12.10;99.80;;;;;;6125058;23;20524;-86
2021/05/16 06:34:13;;;;;;;4.17;3.67;;;12.00;99.80;;;;;;6170641;23;20985;-86
2021/05/16 06:36:41;;;;;;;3.77;3.47;;;12.10;99.80;;;;;;6167960;23;20463;-86
2021/05/16 06:39:09;;;;;;;4.73;4.30;;;12.00;99.80;;;;;;6146403;23;20519;-86
2021/05/16 06:41:37;;;;;;;9.20;4.17;;;12.10;99.80;;;;;;6144944;23;20779;-87
2021/05/16 06:44:04;;;;;;;6.30;4.10;;;12.00;99.80;;;;;;6158228;23;20802;-86
2021/05/16 06:46:33;;;;;;;4.57;4.17;;;12.00;99.80;;;;;;6166757;23;20440;-88
2021/05/16 06:49:00;;;;;;;4.83;3.43;;;12.10;99.80;;;;;;6173517;23;20446;-86
2021/05/16 06:51:28;;;;;;;4.77;4.27;;;12.10;99.80;;;;;;6176097;23;20954;-86
2021/05/16 06:53:59;;;;;;;4.67;3.53;;;12.20;99.80;;;;;;6171285;23;20440;-87
2021/05/16 06:56:26;;;;;;;4.77;3.97;;;12.30;99.80;;;;;;6169299;23;20443;-86
2021/05/16 06:58:53;;;;;;;4.43;4.07;;;12.50;99.80;;;;;;6150634;23;20528;-86
2021/05/16 07:01:21;;;;;;;5.00;3.57;;;12.70;99.80;;;;;;6132334;23;20441;-88
2021/05/16 07:03:49;;;;;;;6.00;3.70;;;12.80;99.80;;;;;;6154648;23;20454;-87
2021/05/16 07:06:17;;;;;;;6.10;4.80;;;12.90;99.80;;;;;;6172289;23;20444;-88
2021/05/16 07:08:46;;;;;;;3.80;3.50;;;13.10;99.80;;;;;;6149982;23;20442;-87
2021/05/16 07:11:14;;;;;;;4.80;4.03;;;13.10;99.80;;;;;;6159130;23;20444;-86
2021/05/16 07:13:41;;;;;;;4.20;3.70;;;13.10;99.80;;;;;;6160227;23;20447;-84
2021/05/16 07:16:09;;;;;;;5.03;3.90;;;13.10;99.80;;;;;;6168876;23;20442;-84
2021/05/16 07:18:36;;;;;;;5.30;3.87;;;13.00;99.80;;;;;;6151209;23;20408;-86
2021/05/16 07:21:05;;;;;;;8.63;4.47;;;12.90;99.80;;;;;;6169569;23;20456;-86
2021/05/16 07:23:33;;;;;;;5.40;4.47;;;12.80;99.80;;;;;;6156904;23;20445;-85
2021/05/16 07:26:00;;;;;;;4.60;4.20;;;12.80;99.80;;;;;;6162534;23;20440;-85
2021/05/16 07:28:28;;;;;;;5.40;4.60;;;12.70;99.80;;;;;;6163552;23;20463;-85
2021/05/16 07:30:55;;;;;;;5.07;4.67;;;12.50;99.80;;;;;;6155262;23;20437;-85
2021/05/16 07:33:23;;;;;;;6.60;4.50;;;12.40;99.80;;;;;;6158951;23;20460;-86
2021/05/16 07:35:50;;;;;;;4.67;4.20;;;12.30;99.80;;;;;;6170250;23;20833;-85
2021/05/16 07:38:19;;;;;;;4.60;4.10;;;12.20;99.80;;;;;;6167267;23;20443;-85
2021/05/16 07:40:46;;;;;;;3.87;3.43;;;12.10;99.80;;;;;;6167583;23;20451;-85
2021/05/16 07:43:14;;;;;;;5.63;4.23;;;12.00;99.80;;;;;;6158300;23;20522;-85
2021/05/16 07:45:42;;;;;;;9.30;3.60;;;12.00;99.80;;;;;;6151944;23;20459;-86
2021/05/16 07:48:10;;;;;;;4.70;4.30;;;12.10;99.80;;;;;;6152786;23;20436;-86
2021/05/16 07:50:37;;;;;;;5.10;4.03;;;12.20;99.80;;;;;;6151184;23;20515;-86
2021/05/16 07:53:05;;;;;;;5.73;5.17;;;12.30;99.80;;;;;;6157378;23;21272;-87
2021/05/16 07:55:33;;;;;;;5.20;4.70;;;12.20;99.80;;;;;;6150050;23;20444;-86
2021/05/16 07:58:01;;;;;;;8.20;6.00;;;12.20;99.80;;;;;;6160566;23;20444;-87
2021/05/16 08:00:28;;;;;;;5.13;4.60;;;12.10;99.80;;;;;;6136303;23;20441;-88
2021/05/16 08:02:56;;;;;;;6.10;5.50;;;12.10;99.80;;;;;;6172905;23;20461;-85
2021/05/16 08:05:23;;;;;;;9.20;6.67;;;12.10;99.80;;;;;;6174552;23;20477;-87
2021/05/16 08:07:51;;;;;;;6.83;5.83;;;12.20;99.80;;;;;;6168051;23;20540;-86
2021/05/16 08:10:20;;;;;;;29.60;16.20;;;12.30;99.80;;;;;;6166911;23;20424;-88
2021/05/16 08:12:50;;;;;;;11.03;7.50;;;12.50;99.80;;;;;;6162522;23;20436;-86
2021/05/16 08:15:17;;;;;;;5.33;4.83;;;12.70;99.80;;;;;;6150547;23;20457;-87
2021/05/16 08:17:45;;;;;;;4.50;4.10;;;12.80;99.80;;;;;;6169741;23;20443;-87
2021/05/16 08:20:13;;;;;;;3.97;3.67;;;12.90;99.80;;;;;;6167361;23;20952;-86
2021/05/16 08:22:42;;;;;;;4.17;3.77;;;13.20;99.80;;;;;;6134955;23;20438;-90
2021/05/16 08:25:12;;;;;;;4.27;3.50;;;13.40;99.80;;;;;;6144347;23;21065;-86
2021/05/16 08:27:41;;;;;;;2.93;2.73;;;13.60;99.80;;;;;;6140819;23;20961;-87
2021/05/16 08:30:11;;;;;;;4.13;2.10;;;13.90;99.80;;;;;;6154334;23;20439;-85
2021/05/16 08:32:39;;;;;;;2.63;2.43;;;14.00;99.80;;;;;;6161752;23;20430;-87
2021/05/16 08:35:07;;;;;;;2.73;2.50;;;14.20;99.80;;;;;;6174701;23;20464;-87
2021/05/16 08:37:34;;;;;;;2.70;2.50;;;14.30;99.80;;;;;;6171375;23;20520;-85
2021/05/16 08:40:03;;;;;;;4.90;2.80;;;14.40;99.80;;;;;;6174980;23;20451;-86
2021/05/16 08:42:32;;;;;;;3.67;2.47;;;14.80;99.80;;;;;;6163597;23;20437;-87
2021/05/16 08:45:00;;;;;;;2.90;2.10;;;14.80;99.80;;;;;;6159855;23;20747;-89
2021/05/16 08:47:29;;;;;;;3.17;2.97;;;14.70;99.80;;;;;;6165280;23;20527;-88
2021/05/16 08:49:57;;;;;;;3.13;2.80;;;14.50;99.80;;;;;;6174656;23;20464;-87
2021/05/16 08:52:24;;;;;;;2.50;2.40;;;14.20;99.80;;;;;;6165467;23;20484;-90
2021/05/16 08:54:56;;;;;;;2.60;2.40;;;14.30;99.80;;;;;;6159196;23;20432;-87
2021/05/16 08:57:37;;;;;;;4.13;2.63;;;14.30;99.80;;;;;;6168505;23;20555;-83
2021/05/16 09:00:12;;;;;;;3.20;2.67;;;14.60;99.80;;;;;;6155095;23;20470;-86
2021/05/16 09:03:05;;;;;;;4.40;2.50;;;14.60;99.80;;;;;;6162026;23;20433;-87
2021/05/16 09:05:36;;;;;;;9.13;2.67;;;15.00;99.80;;;;;;6161606;23;21064;-88
2021/05/16 09:08:06;;;;;;;2.57;2.37;;;15.00;99.80;;;;;;6150948;23;20445;-88
2021/05/16 09:10:34;;;;;;;2.20;2.00;;;14.80;99.80;;;;;;6158483;23;20448;-89
2021/05/16 09:13:17;;;;;;;2.90;2.40;;;14.80;99.80;;;;;;6160330;23;21093;-88
2021/05/16 09:16:00;;;;;;;6.83;2.73;;;14.80;99.80;;;;;;6159830;23;20448;-87
2021/05/16 09:18:40;;;;;;;3.83;2.97;;;14.70;99.80;;;;;;6162724;23;20462;-90
2021/05/16 09:21:36;;;;;;;3.57;2.73;;;14.40;99.80;;;;;;6170422;23;20433;-84
2021/05/16 09:24:13;;;;;;;3.83;3.20;;;14.20;99.80;;;;;;6165493;23;20462;-85
2021/05/16 09:26:53;;;;;;;3.00;2.30;;;14.00;99.80;;;;;;6157177;23;21006;-85
2021/05/16 09:29:22;;;;;;;4.03;2.90;;;13.70;99.80;;;;;;6153332;23;20420;-86
2021/05/16 09:31:51;;;;;;;3.33;2.33;;;13.40;99.80;;;;;;6155309;23;20532;-87
2021/05/16 09:34:20;;;;;;;11.30;3.60;;;12.80;99.80;;;;;;6163422;23;20440;-86
2021/05/16 09:36:49;;;;;;;3.67;1.33;;;11.90;99.80;;;;;;6155881;23;20435;-87
2021/05/16 09:39:19;;;;;;;2.50;1.30;;;11.20;99.80;;;;;;6154071;23;20524;-87
2021/05/16 09:42:03;;;;;;;2.97;1.63;;;11.00;99.80;;;;;;6161183;23;20821;-87
2021/05/16 09:44:35;;;;;;;3.47;2.63;;;11.10;99.80;;;;;;6146251;23;20456;-87
2021/05/16 09:47:14;;;;;;;2.97;2.77;;;11.60;99.80;;;;;;6167739;23;20448;-87
2021/05/16 09:49:45;;;;;;;4.27;3.10;;;12.20;99.80;;;;;;6171587;23;20449;-87
2021/05/16 09:52:14;;;;;;;5.10;2.80;;;13.10;99.80;;;;;;6175260;23;20835;-89
2021/05/16 09:55:02;;;;;;;3.67;2.50;;;13.10;99.80;;;;;;6172495;23;20443;-88
2021/05/16 09:57:31;;;;;;;5.23;2.67;;;13.50;99.80;;;;;;6153184;23;20443;-89
2021/05/16 09:59:59;;;;;;;7.33;2.60;;;14.00;99.80;;;;;;6146066;23;20440;-89
2021/05/16 10:02:28;;;;;;;4.93;1.83;;;14.00;99.80;;;;;;6119372;23;20529;-87
2021/05/16 10:05:00;;;;;;;2.90;2.40;;;14.40;99.80;;;;;;6159333;23;20540;-88
2021/05/16 10:07:30;;;;;;;3.43;2.10;;;14.90;99.80;;;;;;6133870;23;20437;-86
2021/05/16 10:09:58;;;;;;;3.37;1.90;;;15.50;99.80;;;;;;6137728;23;20470;-86
2021/05/16 10:12:26;;;;;;;2.73;1.70;;;15.50;99.80;;;;;;6128230;23;20524;-86
2021/05/16 10:14:59;;;;;;;3.30;1.93;;;15.20;99.80;;;;;;6126433;23;21231;-87
2021/05/16 10:17:27;;;;;;;1.87;1.60;;;14.90;99.80;;;;;;6165603;23;20765;-86
2021/05/16 10:19:55;;;;;;;2.37;1.70;;;14.70;99.80;;;;;;6175672;23;20548;-86
2021/05/16 10:22:27;;;;;;;3.30;1.77;;;14.40;99.80;;;;;;6173015;23;20443;-86
2021/05/16 10:24:59;;;;;;;6.17;2.67;;;14.20;99.80;;;;;;6173786;23;20447;-85
2021/05/16 10:27:29;;;;;;;2.17;1.90;;;14.10;99.80;;;;;;6153772;23;20811;-86
2021/05/16 10:29:58;;;;;;;3.33;1.97;;;14.30;99.80;;;;;;6155825;23;20460;-84
2021/05/16 10:32:31;;;;;;;2.50;1.80;;;14.90;99.80;;;;;;6166217;23;20467;-86
2021/05/16 10:35:00;;;;;;;2.03;1.40;;;15.10;99.80;;;;;;6173097;23;21520;-86
2021/05/16 10:37:40;;;;;;;1.87;1.73;;;15.30;99.80;;;;;;6143693;23;20531;-86
2021/05/16 10:40:26;;;;;;;3.20;1.50;;;15.50;99.80;;;;;;6100790;23;20450;-86
2021/05/16 10:42:55;;;;;;;1.77;1.20;;;15.90;99.80;;;;;;6115235;23;20430;-86
2021/05/16 10:45:29;;;;;;;2.50;1.30;;;16.50;99.80;;;;;;6085694;23;20849;-87
2021/05/16 10:48:07;;;;;;;4.00;2.00;;;16.90;99.80;;;;;;6114168;23;20446;-85
2021/05/16 10:50:55;;;;;;;1.77;1.57;;;17.10;99.80;;;;;;6103386;23;20509;-85
2021/05/16 10:53:34;;;;;;;4.27;2.43;;;17.60;98.60;;;;;;6120150;23;20451;-86
2021/05/16 10:56:10;;;;;;;1.60;1.30;;;18.00;98.00;;;;;;6095879;23;20449;-86
2021/05/16 10:58:56;;;;;;;11.17;1.30;;;18.10;94.50;;;;;;6153526;23;20432;-86
2021/05/16 11:01:32;;;;;;;2.83;2.03;;;18.10;95.00;;;;;;6151852;23;20434;-86
2021/05/16 11:04:01;;;;;;;2.53;1.27;;;18.30;93.90;;;;;;6160747;23;21018;-86
2021/05/16 11:06:59;;;;;;;1.33;1.23;;;18.40;94.20;;;;;;6172242;23;20460;-86
2021/05/16 11:09:34;;;;;;;5.33;1.63;;;18.30;90.10;;;;;;6138798;23;20446;-88
2021/05/16 11:12:04;;;;;;;3.30;1.70;;;18.00;93.10;;;;;;6122779;23;20510;-85
2021/05/16 11:14:35;;;;;;;1.40;1.30;;;18.00;92.10;;;;;;6141601;23;21320;-85
2021/05/16 11:17:05;;;;;;;5.70;1.40;;;18.10;92.30;;;;;;6157849;23;20522;-85
2021/05/16 11:19:35;;;;;;;3.00;1.37;;;18.30;92.60;;;;;;6141437;23;20494;-86
2021/05/16 11:22:12;;;;;;;3.83;1.63;;;18.50;89.70;;;;;;6090563;23;20478;-85
2021/05/16 11:24:45;;;;;;;6.73;1.73;;;18.60;86.10;;;;;;6142768;23;20475;-85
2021/05/16 11:27:21;;;;;;;7.53;1.67;;;19.00;88.10;;;;;;6127437;23;20515;-84
2021/05/16 11:30:06;;;;;;;4.20;1.20;;;19.30;87.90;;;;;;6121757;23;21033;-85
2021/05/16 11:32:35;;;;;;;1.90;1.27;;;19.40;85.10;;;;;;6125297;23;21008;-86
2021/05/16 11:35:08;;;;;;;4.53;1.43;;;19.60;87.20;;;;;;6171193;23;20475;-85
2021/05/16 11:37:36;;;;;;;3.27;2.03;;;19.50;84.60;;;;;;6173371;23;20512;-85
2021/05/16 11:40:32;;;;;;;4.53;2.07;;;19.50;84.70;;;;;;6156275;23;20497;-85
2021/05/16 11:43:02;;;;;;;1.90;1.00;;;20.10;86.20;;;;;;6113073;23;20473;-85
2021/05/16 11:45:36;;;;;;;3.63;1.30;;;20.50;82.30;;;;;;6114312;23;20434;-85
2021/05/16 11:48:04;;;;;;;3.23;1.70;;;20.20;83.60;;;;;;6156213;23;20842;-85
2021/05/16 11:50:43;;;;;;;1.30;1.10;;;19.60;82.00;;;;;;6144138;23;20435;-85
2021/05/16 11:53:11;;;;;;;5.00;1.40;;;19.70;84.50;;;;;;6149656;23;20522;-85
2021/05/16 11:55:40;;;;;;;1.90;1.33;;;19.70;84.50;;;;;;6115059;23;20542;-85
2021/05/16 11:58:09;;;;;;;3.57;1.60;;;20.80;82.30;;;;;;6116749;23;20458;-86
2021/05/16 12:00:37;;;;;;;4.07;1.70;;;20.80;82.30;;;;;;6116216;23;20461;-86
2021/05/16 12:03:12;;;;;;;2.90;1.67;;;21.00;80.60;;;;;;6132158;23;20438;-84
2021/05/16 12:05:41;;;;;;;2.90;1.40;;;20.40;79.00;;;;;;6173712;23;20436;-85
2021/05/16 12:08:16;;;;;;;2.80;1.70;;;20.40;81.10;;;;;;6170486;23;20447;-85
2021/05/16 12:10:45;;;;;;;2.50;1.30;;;20.90;79.30;;;;;;6172586;23;20440;-85
2021/05/16 12:13:21;;;;;;;1.80;1.33;;;21.30;78.20;;;;;;6145682;23;20436;-86
2021/05/16 12:15:48;;;;;;;2.57;1.57;;;21.40;78.00;;;;;;6135833;23;21064;-85
2021/05/16 12:18:21;;;;;;;2.13;1.27;;;21.60;77.20;;;;;;6172161;23;20448;-86
2021/05/16 12:21:01;;;;;;;3.70;1.63;;;21.10;77.20;;;;;;6163562;23;20435;-86
2021/05/16 12:23:31;;;;;;;1.83;1.43;;;19.80;79.40;;;;;;6144221;23;20452;-85
2021/05/16 12:26:00;;;;;;;3.20;1.00;;;19.80;79.40;;;;;;6114411;23;20441;-84
2021/05/16 12:28:28;;;;;;;4.10;1.50;;;19.00;81.60;;;;;;6126604;23;20450;-84
2021/05/16 12:30:57;;;;;;;1.57;1.20;;;18.60;82.50;;;;;;6160590;23;20436;-84
2021/05/16 12:33:25;;;;;;;3.33;1.47;;;18.30;82.20;;;;;;6128363;23;20801;-84
2021/05/16 12:35:53;;;;;;;1.40;1.30;;;21.40;82.00;;;;;;6127515;23;20442;-84
2021/05/16 12:38:20;;;;;;;1.97;1.10;;;21.40;82.00;;;;;;6062985;23;20448;-84
2021/05/16 12:40:48;;;;;;;1.57;1.23;;;24.00;72.80;;;;;;6127737;23;20550;-83
2021/05/16 12:43:20;;;;;;;1.43;0.90;;;25.90;70.50;;;;;;6116936;23;20438;-83
2021/05/16 12:45:48;;;;;;;2.23;1.23;;;25.50;71.10;;;;;;6145328;23;20514;-84
2021/05/16 12:48:19;;;;;;;4.43;1.03;;;24.10;72.00;;;;;;6142580;23;20472;-84
2021/05/16 12:50:48;;;;;;;9.63;1.40;;;24.10;71.90;;;;;;6171859;23;20460;-84
2021/05/16 12:53:28;;;;;;;4.77;2.33;;;22.40;75.90;;;;;;6164453;23;20439;-83
2021/05/16 12:55:58;;;;;;;4.70;1.70;;;22.30;75.80;;;;;;6150233;23;20826;-84
2021/05/16 12:58:33;;;;;;;3.00;1.50;;;21.10;77.40;;;;;;6155685;23;20471;-85
2021/05/16 13:01:01;;;;;;;3.30;1.13;;;20.00;79.50;;;;;;6145053;23;20955;-85